createdAt,value
2019-02-25T00:01:00.641Z,11.60
2019-02-25T00:03:29.661Z,11.70
2019-02-25T00:05:58.927Z,11.00
2019-02-25T00:08:28.193Z,10.03
2019-02-25T00:10:57.185Z,8.50
2019-02-25T00:13:26.325Z,8.93
2019-02-25T00:15:55.686Z,9.77
2019-02-25T00:18:24.609Z,9.73
2019-02-25T00:20:53.648Z,10.13
2019-02-25T00:23:22.609Z,10.40
2019-02-25T00:25:52.057Z,9.80
2019-02-25T00:28:20.981Z,8.87
2019-02-25T00:30:50.038Z,9.30
2019-02-25T00:33:19.016Z,8.87
2019-02-25T00:35:48.192Z,9.67
2019-02-25T00:38:17.182Z,8.47
2019-02-25T00:40:46.177Z,8.83
2019-02-25T00:43:15.474Z,10.10
2019-02-25T00:45:44.466Z,10.87
2019-02-25T00:48:13.797Z,10.83
2019-02-25T00:50:45.484Z,14.43
2019-02-25T00:53:14.582Z,15.27
2019-02-25T00:55:43.693Z,14.63
2019-02-25T00:58:13.193Z,13.30
2019-02-25T01:00:42.354Z,15.10
2019-02-25T01:03:11.425Z,13.80
2019-02-25T01:05:40.559Z,12.40
2019-02-25T01:08:09.637Z,12.03
2019-02-25T01:10:38.772Z,10.17
2019-02-25T01:13:07.790Z,11.00
2019-02-25T01:15:36.835Z,10.40
2019-02-25T01:18:05.843Z,9.87
2019-02-25T01:20:35.091Z,11.00
2019-02-25T01:23:04.025Z,10.77
2019-02-25T01:25:33.033Z,11.03
2019-02-25T01:28:02.020Z,12.27
2019-02-25T01:30:31.041Z,14.30
2019-02-25T01:32:59.965Z,12.93
2019-02-25T01:35:28.893Z,11.17
2019-02-25T01:37:57.897Z,12.10
2019-02-25T01:40:27.121Z,12.37
2019-02-25T01:42:56.332Z,11.67
2019-02-25T01:45:25.357Z,10.87
2019-02-25T01:47:54.589Z,11.00
2019-02-25T01:50:23.581Z,9.97
2019-02-25T01:52:52.502Z,9.10
2019-02-25T01:55:21.432Z,10.40
2019-02-25T01:57:50.346Z,9.43
2019-02-25T02:00:19.356Z,9.97
2019-02-25T02:02:48.290Z,10.03
2019-02-25T02:05:17.221Z,9.43
2019-02-25T02:07:46.133Z,9.33
2019-02-25T02:10:15.465Z,9.13
2019-02-25T02:12:44.709Z,9.20
2019-02-25T02:15:14.489Z,8.53
2019-02-25T02:17:43.500Z,9.47
2019-02-25T02:20:13.907Z,8.57
2019-02-25T02:22:43.185Z,9.47
2019-02-25T02:25:12.413Z,8.60
2019-02-25T02:27:41.357Z,8.83
2019-02-25T02:30:14.109Z,9.63
2019-02-25T02:32:43.130Z,9.20
2019-02-25T02:35:12.433Z,8.70
2019-02-25T02:37:41.357Z,9.23
2019-02-25T02:40:10.568Z,8.53
2019-02-25T02:42:40.613Z,9.10
2019-02-25T02:45:33.443Z,8.17
2019-02-25T02:48:09.211Z,9.13
2019-02-25T02:50:39.338Z,8.23
2019-02-25T02:53:08.360Z,8.53
2019-02-25T02:55:37.294Z,9.00
2019-02-25T02:58:06.336Z,9.87
2019-02-25T03:00:35.451Z,8.00
2019-02-25T03:03:04.582Z,7.77
2019-02-25T03:05:33.588Z,7.67
2019-02-25T03:08:02.593Z,8.80
2019-02-25T03:10:31.507Z,9.17
2019-02-25T03:13:00.518Z,8.90
2019-02-25T03:15:29.545Z,8.60
2019-02-25T03:17:58.750Z,9.70
2019-02-25T03:20:27.676Z,8.73
2019-02-25T03:22:56.936Z,9.20
2019-02-25T03:25:25.861Z,9.33
2019-02-25T03:27:54.871Z,10.60
2019-02-25T03:30:23.854Z,9.63
2019-02-25T03:32:53.054Z,8.97
2019-02-25T03:35:22.649Z,9.03
2019-02-25T03:37:51.646Z,9.73
2019-02-25T03:40:21.151Z,9.67
2019-02-25T03:42:50.193Z,10.00
2019-02-25T03:45:19.384Z,10.70
2019-02-25T03:47:48.313Z,8.90
2019-02-25T03:50:17.325Z,8.43
2019-02-25T03:52:46.591Z,10.60
2019-02-25T03:55:17.156Z,10.43
2019-02-25T03:57:46.291Z,9.40
2019-02-25T04:00:17.644Z,10.30
2019-02-25T04:02:47.026Z,9.83
2019-02-25T04:05:16.114Z,9.10
2019-02-25T04:07:45.109Z,9.90
2019-02-25T04:10:14.231Z,10.30
2019-02-25T04:12:43.233Z,9.70
2019-02-25T04:15:14.610Z,10.23
2019-02-25T04:17:43.645Z,9.63
2019-02-25T04:20:13.869Z,10.53
2019-02-25T04:22:43.216Z,11.03
2019-02-25T04:25:12.168Z,10.83
2019-02-25T04:27:41.133Z,10.17
2019-02-25T04:30:13.105Z,10.33
2019-02-25T04:32:42.131Z,10.83
2019-02-25T04:35:11.510Z,9.97
2019-02-25T04:37:40.496Z,9.93
2019-02-25T04:40:10.932Z,10.40
2019-02-25T04:42:39.855Z,9.67
2019-02-25T04:45:18.076Z,10.97
2019-02-25T04:47:47.099Z,10.40
2019-02-25T04:50:16.139Z,10.37
2019-02-25T04:52:45.091Z,8.97
2019-02-25T04:55:14.135Z,10.33
2019-02-25T04:57:43.226Z,8.73
2019-02-25T05:00:14.451Z,9.47
2019-02-25T05:02:43.511Z,9.93
2019-02-25T05:05:12.661Z,10.10
2019-02-25T05:07:41.673Z,10.77
2019-02-25T05:10:11.942Z,9.60
2019-02-25T05:12:43.413Z,10.57
2019-02-25T05:15:14.918Z,9.13
2019-02-25T05:17:44.383Z,11.00
2019-02-25T05:20:13.398Z,10.53
2019-02-25T05:22:42.654Z,10.43
2019-02-25T05:25:11.764Z,10.37
2019-02-25T05:27:40.600Z,11.27
2019-02-25T05:30:10.010Z,10.80
2019-02-25T05:32:38.869Z,10.53
2019-02-25T05:35:08.621Z,12.37
2019-02-25T05:37:37.479Z,11.17
2019-02-25T05:40:08.998Z,12.80
2019-02-25T05:42:38.209Z,10.40
2019-02-25T05:45:07.374Z,11.70
2019-02-25T05:47:36.206Z,12.70
2019-02-25T05:50:06.694Z,13.33
2019-02-25T05:52:35.612Z,12.83
2019-02-25T05:55:05.167Z,14.90
2019-02-25T05:57:34.017Z,13.70
2019-02-25T06:00:03.100Z,13.07
2019-02-25T06:02:32.350Z,11.13
2019-02-25T06:05:01.273Z,11.77
2019-02-25T06:07:30.109Z,12.77
2019-02-25T06:09:59.118Z,12.20
2019-02-25T06:12:28.365Z,11.13
2019-02-25T06:14:57.562Z,11.30
2019-02-25T06:17:26.414Z,13.37
2019-02-25T06:19:55.717Z,13.33
2019-02-25T06:22:24.570Z,11.73
2019-02-25T06:24:53.669Z,12.60
2019-02-25T06:27:30.475Z,11.60
2019-02-25T06:29:53.574Z,12.67
2019-02-25T06:32:22.412Z,12.50
2019-02-25T06:34:51.330Z,12.47
2019-02-25T06:37:20.677Z,13.50
2019-02-25T06:39:49.902Z,13.63
2019-02-25T06:42:18.749Z,12.40
2019-02-25T06:44:47.668Z,12.40
2019-02-25T06:47:16.589Z,12.27
2019-02-25T06:49:45.433Z,13.03
2019-02-25T06:52:14.373Z,12.60
2019-02-25T06:54:43.216Z,12.27
2019-02-25T06:57:12.215Z,13.47
2019-02-25T06:59:41.053Z,13.00
2019-02-25T07:02:10.061Z,12.37
2019-02-25T07:04:44.402Z,13.10
2019-02-25T07:07:17.351Z,12.20
2019-02-25T07:10:11.518Z,13.83
2019-02-25T07:12:59.613Z,13.20
2019-02-25T07:15:40.510Z,12.93
2019-02-25T07:18:19.341Z,11.57
2019-02-25T07:21:03.411Z,11.27
2019-02-25T07:23:44.976Z,12.57
2019-02-25T07:26:41.765Z,11.03
2019-02-25T07:29:36.326Z,11.33
2019-02-25T07:32:33.875Z,11.97
2019-02-25T07:35:40.169Z,11.43
2019-02-25T07:38:24.083Z,11.10
2019-02-25T07:41:05.393Z,12.33
2019-02-25T07:43:42.577Z,13.03
2019-02-25T07:46:29.661Z,11.73
2019-02-25T07:49:27.069Z,11.50
2019-02-25T07:52:15.019Z,10.70
2019-02-25T07:54:57.866Z,13.30
2019-02-25T07:57:50.418Z,11.73
2019-02-25T08:00:31.789Z,11.57
2019-02-25T08:03:08.885Z,12.63
2019-02-25T08:05:53.221Z,12.10
2019-02-25T08:08:31.545Z,11.97
2019-02-25T08:11:31.857Z,11.47
2019-02-25T08:14:23.237Z,13.40
2019-02-25T08:17:00.590Z,12.20
2019-02-25T08:19:47.722Z,13.03
2019-02-25T08:22:38.765Z,13.63
2019-02-25T08:25:25.718Z,12.80
2019-02-25T08:28:12.441Z,10.67
2019-02-25T08:30:50.113Z,11.00
2019-02-25T08:33:26.405Z,12.30
2019-02-25T08:37:01.988Z,11.33
2019-02-25T08:39:34.749Z,10.70
2019-02-25T08:42:11.809Z,11.37
2019-02-25T08:44:47.782Z,11.93
2019-02-25T08:47:21.366Z,11.73
2019-02-25T08:49:53.207Z,11.57
2019-02-25T08:52:22.212Z,11.87
2019-02-25T08:54:51.234Z,10.67
2019-02-25T08:57:20.237Z,11.43
2019-02-25T08:59:49.245Z,11.77
2019-02-25T09:02:18.243Z,11.67
2019-02-25T09:04:49.154Z,10.83
2019-02-25T09:07:18.414Z,11.67
2019-02-25T09:09:47.669Z,11.47
2019-02-25T09:12:16.985Z,11.43
2019-02-25T09:14:45.993Z,11.97
2019-02-25T09:17:16.128Z,10.57
2019-02-25T09:19:45.437Z,10.30
2019-02-25T09:22:14.857Z,9.83
2019-02-25T09:24:43.781Z,9.13
2019-02-25T09:27:13.049Z,9.60
2019-02-25T09:29:42.062Z,9.60
2019-02-25T09:32:10.977Z,8.93
2019-02-25T09:34:40.247Z,8.67
2019-02-25T09:37:09.546Z,8.87
2019-02-25T09:39:38.475Z,8.93
2019-02-25T09:42:07.466Z,7.73
2019-02-25T09:44:37.938Z,7.43
2019-02-25T09:47:07.117Z,8.27
2019-02-25T09:49:36.297Z,8.70
2019-02-25T09:52:05.306Z,7.47
2019-02-25T09:54:34.221Z,7.23
2019-02-25T09:57:03.225Z,7.53
2019-02-25T09:59:32.193Z,8.43
2019-02-25T10:02:01.091Z,7.97
2019-02-25T10:04:30.253Z,7.83
2019-02-25T10:07:02.357Z,7.80
2019-02-25T10:09:32.410Z,7.27
2019-02-25T10:12:01.611Z,7.90
2019-02-25T10:14:30.722Z,8.13
2019-02-25T10:17:00.082Z,6.83
2019-02-25T10:19:29.185Z,6.63
2019-02-25T10:21:58.105Z,6.80
2019-02-25T10:24:27.029Z,5.97
2019-02-25T10:26:55.890Z,5.77
2019-02-25T10:29:25.156Z,5.27
2019-02-25T10:31:54.096Z,5.47
2019-02-25T10:34:24.041Z,5.23
2019-02-25T10:36:53.045Z,5.80
2019-02-25T10:39:22.345Z,4.87
2019-02-25T10:41:53.289Z,5.17
2019-02-25T10:44:21.993Z,4.97
2019-02-25T10:46:51.003Z,5.57
2019-02-25T10:49:19.910Z,5.53
2019-02-25T10:51:48.905Z,5.37
2019-02-25T10:54:19.556Z,4.83
2019-02-25T10:57:03.813Z,4.00
2019-02-25T10:59:34.506Z,3.67
2019-02-25T11:02:03.478Z,3.90
2019-02-25T11:04:32.389Z,4.57
2019-02-25T11:07:02.973Z,3.90
2019-02-25T11:09:54.438Z,3.50
2019-02-25T11:12:24.120Z,2.87
2019-02-25T11:14:54.231Z,2.83
2019-02-25T11:17:24.477Z,3.60
2019-02-25T11:19:54.984Z,3.33
2019-02-25T11:22:24.436Z,3.60
2019-02-25T11:24:54.008Z,3.97
2019-02-25T11:27:24.128Z,3.60
2019-02-25T11:29:53.152Z,4.37
2019-02-25T11:32:23.701Z,5.40
2019-02-25T11:34:52.951Z,4.43
2019-02-25T11:37:24.486Z,4.40
2019-02-25T11:39:54.785Z,4.90
2019-02-25T11:42:23.530Z,4.43
2019-02-25T11:44:54.085Z,4.87
2019-02-25T11:47:23.293Z,5.00
2019-02-25T11:49:52.217Z,5.03
2019-02-25T11:52:21.167Z,5.50
2019-02-25T11:54:50.211Z,6.30
2019-02-25T11:57:19.426Z,5.37
2019-02-25T11:59:48.594Z,6.20
2019-02-25T12:02:25.174Z,5.90
2019-02-25T12:04:48.601Z,6.53
2019-02-25T12:07:17.788Z,6.00
2019-02-25T12:09:46.793Z,6.67
2019-02-25T12:12:15.809Z,6.40
2019-02-25T12:14:44.849Z,6.53
2019-02-25T12:17:13.733Z,7.63
2019-02-25T12:19:42.751Z,6.20
2019-02-25T12:22:11.766Z,6.03
2019-02-25T12:24:40.689Z,5.60
2019-02-25T12:27:11.844Z,5.87
2019-02-25T12:29:40.954Z,6.20
2019-02-25T12:32:10.384Z,5.67
2019-02-25T12:34:39.242Z,5.87
2019-02-25T12:37:08.794Z,5.73
2019-02-25T12:39:37.649Z,5.93
2019-02-25T12:42:06.849Z,5.57
2019-02-25T12:44:35.774Z,5.77
2019-02-25T12:47:04.766Z,6.37
2019-02-25T12:49:33.697Z,6.13
2019-02-25T12:52:02.541Z,5.00
2019-02-25T12:54:31.390Z,6.13
2019-02-25T12:57:00.554Z,6.07
2019-02-25T12:59:29.549Z,4.93
2019-02-25T13:01:58.561Z,4.70
2019-02-25T13:04:27.717Z,4.80
2019-02-25T13:06:57.013Z,5.33
2019-02-25T13:09:26.014Z,3.90
2019-02-25T13:11:55.001Z,5.50
2019-02-25T13:14:23.997Z,4.13
2019-02-25T13:16:52.909Z,4.20
2019-02-25T13:19:22.083Z,3.43
2019-02-25T13:21:50.929Z,3.47
2019-02-25T13:24:19.781Z,4.37
2019-02-25T13:26:48.639Z,4.00
2019-02-25T13:29:17.561Z,3.70
2019-02-25T13:31:46.405Z,3.13
2019-02-25T13:34:15.261Z,3.77
2019-02-25T13:36:44.106Z,3.70
2019-02-25T13:39:13.681Z,3.37
2019-02-25T13:41:42.957Z,3.20
2019-02-25T13:44:12.057Z,3.87
2019-02-25T13:46:40.906Z,2.80
2019-02-25T13:49:10.077Z,2.90
2019-02-25T13:51:39.094Z,2.90
2019-02-25T13:54:08.429Z,3.50
2019-02-25T13:56:37.679Z,3.30
2019-02-25T13:59:06.879Z,2.60
2019-02-25T14:01:35.962Z,3.43
2019-02-25T14:04:05.027Z,2.90
2019-02-25T14:06:34.346Z,2.50
2019-02-25T14:09:04.799Z,2.67
2019-02-25T14:11:34.085Z,3.63
2019-02-25T14:14:03.089Z,3.40
2019-02-25T14:16:32.093Z,3.23
2019-02-25T14:19:01.091Z,3.87
2019-02-25T14:21:31.734Z,3.90
2019-02-25T14:24:00.836Z,3.17
2019-02-25T14:26:29.841Z,3.73
2019-02-25T14:28:59.041Z,3.20
2019-02-25T14:31:29.936Z,3.77
2019-02-25T14:33:58.970Z,4.20
2019-02-25T14:36:28.530Z,4.73
2019-02-25T14:38:59.463Z,3.30
2019-02-25T14:41:28.556Z,3.47
2019-02-25T14:43:58.724Z,4.00
2019-02-25T14:46:27.990Z,3.40
2019-02-25T14:48:57.154Z,4.53
2019-02-25T14:51:26.421Z,3.50
2019-02-25T14:53:55.432Z,4.03
2019-02-25T14:56:24.510Z,3.57
2019-02-25T14:58:53.608Z,3.13
2019-02-25T15:01:24.971Z,3.43
2019-02-25T15:03:53.861Z,3.30
2019-02-25T15:06:22.941Z,3.47
2019-02-25T15:08:52.146Z,5.00
2019-02-25T15:11:21.345Z,3.97
2019-02-25T15:13:50.589Z,4.93
2019-02-25T15:16:19.537Z,4.30
2019-02-25T15:18:48.868Z,3.87
2019-02-25T15:21:17.941Z,3.63
2019-02-25T15:23:47.005Z,3.87
2019-02-25T15:26:17.373Z,3.67
2019-02-25T15:28:46.949Z,3.70
2019-02-25T15:31:16.467Z,4.77
2019-02-25T15:33:45.673Z,4.77
2019-02-25T15:36:17.442Z,3.90
2019-02-25T15:38:45.897Z,3.13
2019-02-25T15:41:14.973Z,4.30
2019-02-25T15:43:44.364Z,3.73
2019-02-25T15:46:16.379Z,4.53
2019-02-25T15:48:44.606Z,4.53
2019-02-25T15:51:13.727Z,4.47
2019-02-25T15:53:46.201Z,5.57
2019-02-25T15:56:14.033Z,4.23
2019-02-25T15:58:43.062Z,4.77
2019-02-25T16:01:18.443Z,4.27
2019-02-25T16:03:47.776Z,4.10
2019-02-25T16:06:17.349Z,4.30
2019-02-25T16:08:49.959Z,4.53
2019-02-25T16:11:18.802Z,3.87
2019-02-25T16:13:48.555Z,5.37
2019-02-25T16:16:19.829Z,5.37
2019-02-25T16:18:48.474Z,5.07
2019-02-25T16:21:17.479Z,5.70
2019-02-25T16:23:46.481Z,4.20
2019-02-25T16:26:16.057Z,4.60
2019-02-25T16:28:46.161Z,4.43
2019-02-25T16:31:15.101Z,5.07
2019-02-25T16:33:44.125Z,5.30
2019-02-25T16:36:13.104Z,4.37
2019-02-25T16:38:42.113Z,6.60
2019-02-25T16:41:11.182Z,5.40
2019-02-25T16:43:40.043Z,4.93
2019-02-25T16:46:13.382Z,4.73
2019-02-25T16:48:39.782Z,4.40
2019-02-25T16:51:10.088Z,5.30
2019-02-25T16:53:40.980Z,4.80
2019-02-25T16:56:11.974Z,4.87
2019-02-25T16:58:41.046Z,4.80
2019-02-25T17:01:10.988Z,5.27
2019-02-25T17:03:41.492Z,4.80
2019-02-25T17:06:12.167Z,5.30
2019-02-25T17:08:42.194Z,4.67
2019-02-25T17:11:12.792Z,5.17
2019-02-25T17:13:42.006Z,8.13
2019-02-25T17:16:18.028Z,6.00
2019-02-25T17:18:42.002Z,5.50
2019-02-25T17:21:10.929Z,6.60
2019-02-25T17:24:02.964Z,6.57
2019-02-25T17:26:32.372Z,6.23
2019-02-25T17:29:01.281Z,6.00
2019-02-25T17:31:32.366Z,6.70
2019-02-25T17:34:01.402Z,8.23
2019-02-25T17:36:30.402Z,9.43
2019-02-25T17:38:59.331Z,7.10
2019-02-25T17:41:28.410Z,7.50
2019-02-25T17:43:59.042Z,8.00
2019-02-25T17:46:28.858Z,8.23
2019-02-25T17:48:58.692Z,7.30
2019-02-25T17:51:28.109Z,6.83
2019-02-25T17:53:57.427Z,7.80
2019-02-25T17:56:26.971Z,7.90
2019-02-25T17:58:58.804Z,6.33
2019-02-25T18:01:28.024Z,7.47
2019-02-25T18:03:57.445Z,7.10
2019-02-25T18:06:30.180Z,7.77
2019-02-25T18:11:18.414Z,7.30
2019-02-25T18:13:48.929Z,6.80
2019-02-25T18:16:18.970Z,7.77
2019-02-25T18:18:50.710Z,8.40
2019-02-25T18:21:18.993Z,9.97
2019-02-25T18:23:49.395Z,10.10
2019-02-25T18:26:18.852Z,9.77
2019-02-25T18:28:48.474Z,9.47
2019-02-25T18:31:18.943Z,8.90
2019-02-25T18:33:48.599Z,8.43
2019-02-25T18:36:18.715Z,8.20
2019-02-25T18:38:48.582Z,9.53
2019-02-25T18:41:18.499Z,9.30
2019-02-25T18:43:49.223Z,8.40
2019-02-25T18:46:19.192Z,9.10
2019-02-25T18:48:49.724Z,9.90
2019-02-25T18:51:20.028Z,10.03
2019-02-25T18:53:49.059Z,10.30
2019-02-25T18:56:18.943Z,9.77
2019-02-25T18:58:49.147Z,9.37
2019-02-25T19:01:18.469Z,10.37
2019-02-25T19:03:48.306Z,10.17
2019-02-25T19:06:19.346Z,10.27
2019-02-25T19:08:49.409Z,11.03
2019-02-25T19:11:21.355Z,10.67
2019-02-25T19:13:52.047Z,11.97
2019-02-25T19:16:21.984Z,10.10
2019-02-25T19:18:51.775Z,11.70
2019-02-25T19:21:20.805Z,15.83
2019-02-25T19:24:09.916Z,13.73
2019-02-25T19:26:40.833Z,16.23
2019-02-25T19:29:12.463Z,18.60
2019-02-25T19:31:42.537Z,16.20
2019-02-25T19:34:15.493Z,20.00
2019-02-25T19:36:42.462Z,22.93
2019-02-25T19:39:14.376Z,25.80
2019-02-25T19:41:46.965Z,19.70
2019-02-25T19:44:14.857Z,20.80
2019-02-25T19:46:45.662Z,20.30
2019-02-25T19:49:15.970Z,18.70
2019-02-25T19:51:46.090Z,18.97
2019-02-25T19:54:16.772Z,17.23
2019-02-25T19:56:48.215Z,18.53
2019-02-25T19:59:19.173Z,18.70
2019-02-25T20:01:47.882Z,17.40
2019-02-25T20:04:18.740Z,17.10
2019-02-25T20:06:48.945Z,18.43
2019-02-25T20:09:19.321Z,19.13
2019-02-25T20:11:48.244Z,19.33
2019-02-25T20:14:18.206Z,18.70
2019-02-25T20:16:47.998Z,20.67
2019-02-25T20:19:16.983Z,19.20
2019-02-25T20:21:48.135Z,22.87
2019-02-25T20:24:19.052Z,22.00
2019-02-25T20:26:50.948Z,21.33
2019-02-25T20:29:19.523Z,22.30
2019-02-25T20:31:50.146Z,18.60
2019-02-25T20:34:20.781Z,19.30
2019-02-25T20:36:53.060Z,18.77
2019-02-25T20:39:22.011Z,20.23
2019-02-25T20:41:54.244Z,20.13
2019-02-25T20:44:26.126Z,19.40
2019-02-25T20:46:57.299Z,21.47
2019-02-25T20:49:30.033Z,18.30
2019-02-25T20:52:01.036Z,20.00
2019-02-25T20:54:28.330Z,19.73
2019-02-25T20:56:57.461Z,18.53
2019-02-25T20:59:28.078Z,18.30
2019-02-25T21:01:57.043Z,16.70
2019-02-25T21:04:27.617Z,20.23
2019-02-25T21:06:56.542Z,19.90
2019-02-25T21:09:25.706Z,23.87
2019-02-25T21:11:54.700Z,18.50
2019-02-25T21:14:24.332Z,16.77
2019-02-25T21:16:54.354Z,16.63
2019-02-25T21:19:24.545Z,17.13
2019-02-25T21:21:57.013Z,16.47
2019-02-25T21:24:26.761Z,15.90
2019-02-25T21:26:58.948Z,16.07
2019-02-25T21:29:29.387Z,16.10
2019-02-25T21:31:58.890Z,16.53
2019-02-25T21:34:29.172Z,16.67
2019-02-25T21:37:00.608Z,15.87
2019-02-25T21:39:29.344Z,16.30
2019-02-25T21:41:58.269Z,16.83
2019-02-25T21:44:29.041Z,15.50
2019-02-25T21:46:58.967Z,16.60
2019-02-25T21:49:29.647Z,15.60
2019-02-25T21:52:00.302Z,20.23
2019-02-25T21:54:30.673Z,20.90
2019-02-25T21:57:01.201Z,19.93
2019-02-25T21:59:32.230Z,19.77
2019-02-25T22:02:01.646Z,18.47
2019-02-25T22:04:38.451Z,16.77
2019-02-25T22:07:05.999Z,18.40
2019-02-25T22:09:36.944Z,18.80
2019-02-25T22:12:05.874Z,18.20
2019-02-25T22:14:34.865Z,18.47
2019-02-25T22:17:04.207Z,17.97
2019-02-25T22:19:35.036Z,19.23
2019-02-25T22:22:04.959Z,18.00
2019-02-25T22:24:36.170Z,19.83
2019-02-25T22:27:05.248Z,18.90
2019-02-25T22:29:36.438Z,18.23
2019-02-25T22:34:25.383Z,17.10
2019-02-25T22:36:55.884Z,17.47
2019-02-25T22:39:25.780Z,18.50
2019-02-25T22:41:55.585Z,18.33
2019-02-25T22:44:24.743Z,17.00
2019-02-25T22:46:55.076Z,17.20
2019-02-25T22:49:24.651Z,17.43
2019-02-25T22:51:58.105Z,20.00
2019-02-25T22:54:27.793Z,23.67
2019-02-25T22:56:56.972Z,25.37
2019-02-25T22:59:25.960Z,24.70
2019-02-25T23:01:55.276Z,24.90
2019-02-25T23:04:26.426Z,23.80
2019-02-25T23:06:55.750Z,22.73
2019-02-25T23:09:25.814Z,25.00
2019-02-25T23:11:57.733Z,24.03
2019-02-25T23:14:26.670Z,22.43
2019-02-25T23:16:55.754Z,21.83
2019-02-25T23:19:24.685Z,21.20
2019-02-25T23:21:53.536Z,20.10
2019-02-25T23:24:26.052Z,20.33
2019-02-25T23:26:55.085Z,21.30
2019-02-25T23:29:27.848Z,20.70
2019-02-25T23:31:54.845Z,19.63
2019-02-25T23:34:25.170Z,21.10
2019-02-25T23:36:56.101Z,20.27
2019-02-25T23:39:24.711Z,19.77
2019-02-25T23:41:54.011Z,19.57
2019-02-25T23:44:24.613Z,19.40
2019-02-25T23:46:57.937Z,20.43
2019-02-25T23:49:27.234Z,19.50
2019-02-25T23:51:55.465Z,19.57
2019-02-25T23:54:27.347Z,18.27
2019-02-25T23:56:57.900Z,20.67
2019-02-25T23:59:26.649Z,19.37
